sensor_id;sensor_type;location;lat;lon;timestamp;pressure;altitude;pressure_sealevel;temperature;humidity
22582;BME280;47125;48.542;9.052;2023-04-20T00:05:29;95933.69;;;7.11;63.83
22582;BME280;47125;48.542;9.052;2023-04-20T00:15:33;95905.13;;;6.82;65.32
22582;BME280;47125;48.542;9.052;2023-04-20T00:25:36;95896.13;;;6.83;64.82
22582;BME280;47125;48.542;9.052;2023-04-20T00:35:39;95882.47;;;6.79;64.52
22582;BME280;47125;48.542;9.052;2023-04-20T00:45:42;95869.75;;;6.63;65.27
22582;BME280;47125;48.542;9.052;2023-04-20T00:55:46;95859.34;;;6.61;64.82
22582;BME280;47125;48.542;9.052;2023-04-20T01:05:48;95849.09;;;6.40;65.34
22582;BME280;47125;48.542;9.052;2023-04-20T01:15:53;95837.34;;;6.30;66.14
22582;BME280;47125;48.542;9.052;2023-04-20T01:26:05;95820.22;;;6.26;66.15
22582;BME280;47125;48.542;9.052;2023-04-20T01:36:08;95811.94;;;6.16;66.83
22582;BME280;47125;48.542;9.052;2023-04-20T01:46:13;95791.94;;;6.13;66.52
22582;BME280;47125;48.542;9.052;2023-04-20T01:56:15;95788.03;;;5.91;66.62
22582;BME280;47125;48.542;9.052;2023-04-20T02:06:19;95779.25;;;5.90;66.90
22582;BME280;47125;48.542;9.052;2023-04-20T02:16:21;95776.47;;;5.79;67.10
22582;BME280;47125;48.542;9.052;2023-04-20T02:26:25;95765.47;;;5.75;66.99
22582;BME280;47125;48.542;9.052;2023-04-20T02:36:28;95746.06;;;5.81;66.77
22582;BME280;47125;48.542;9.052;2023-04-20T02:46:32;95733.72;;;5.31;67.62
22582;BME280;47125;48.542;9.052;2023-04-20T02:56:34;95727.22;;;5.65;67.36
22582;BME280;47125;48.542;9.052;2023-04-20T03:06:40;95717.75;;;5.44;68.05
22582;BME280;47125;48.542;9.052;2023-04-20T03:16:42;95711.13;;;5.28;68.05
22582;BME280;47125;48.542;9.052;2023-04-20T03:26:47;95694.75;;;5.38;68.21
22582;BME280;47125;48.542;9.052;2023-04-20T03:36:49;95691.97;;;5.26;68.28
22582;BME280;47125;48.542;9.052;2023-04-20T03:46:53;95697.28;;;5.26;68.59
22582;BME280;47125;48.542;9.052;2023-04-20T03:56:55;95693.97;;;5.37;69.04
22582;BME280;47125;48.542;9.052;2023-04-20T04:07:00;95681.75;;;5.36;69.39
22582;BME280;47125;48.542;9.052;2023-04-20T04:17:02;95685.34;;;5.48;68.81
22582;BME280;47125;48.542;9.052;2023-04-20T04:27:06;95680.09;;;5.73;69.69
22582;BME280;47125;48.542;9.052;2023-04-20T04:37:08;95686.03;;;5.69;69.26
22582;BME280;47125;48.542;9.052;2023-04-20T04:47:12;95673.91;;;5.86;68.14
22582;BME280;47125;48.542;9.052;2023-04-20T04:57:16;95673.44;;;5.95;68.63
22582;BME280;47125;48.542;9.052;2023-04-20T05:07:19;95686.72;;;5.89;68.37
22582;BME280;47125;48.542;9.052;2023-04-20T05:17:22;95681.81;;;5.92;67.76
22582;BME280;47125;48.542;9.052;2023-04-20T05:27:26;95681.00;;;5.92;68.21
22582;BME280;47125;48.542;9.052;2023-04-20T05:37:28;95671.00;;;5.94;67.82
22582;BME280;47125;48.542;9.052;2023-04-20T05:47:32;95687.28;;;5.97;68.67
22582;BME280;47125;48.542;9.052;2023-04-20T05:57:34;95700.38;;;6.17;67.87
22582;BME280;47125;48.542;9.052;2023-04-20T06:07:44;95690.38;;;5.94;68.30
22582;BME280;47125;48.542;9.052;2023-04-20T06:17:46;95689.63;;;6.12;69.44
22582;BME280;47125;48.542;9.052;2023-04-20T06:27:50;95673.59;;;6.00;69.99
22582;BME280;47125;48.542;9.052;2023-04-20T06:37:53;95671.75;;;6.26;69.67
22582;BME280;47125;48.542;9.052;2023-04-20T06:47:58;95662.88;;;6.75;68.02
22582;BME280;47125;48.542;9.052;2023-04-20T06:58:02;95676.44;;;7.03;67.98
22582;BME280;47125;48.542;9.052;2023-04-20T07:08:05;95670.03;;;6.92;68.63
22582;BME280;47125;48.542;9.052;2023-04-20T07:18:10;95657.31;;;7.12;68.47
22582;BME280;47125;48.542;9.052;2023-04-20T07:28:14;95658.19;;;7.25;68.77
22582;BME280;47125;48.542;9.052;2023-04-20T07:38:17;95664.63;;;7.17;69.32
22582;BME280;47125;48.542;9.052;2023-04-20T07:48:20;95667.69;;;7.32;68.99
22582;BME280;47125;48.542;9.052;2023-04-20T07:58:23;95680.28;;;7.37;69.30
22582;BME280;47125;48.542;9.052;2023-04-20T08:08:27;95665.50;;;7.29;69.63
22582;BME280;47125;48.542;9.052;2023-04-20T08:18:29;95661.13;;;7.35;70.17
22582;BME280;47125;48.542;9.052;2023-04-20T08:28:33;95662.88;;;6.93;73.68
22582;BME280;47125;48.542;9.052;2023-04-20T08:38:36;95660.97;;;6.82;76.03
22582;BME280;47125;48.542;9.052;2023-04-20T08:48:40;95653.09;;;7.23;75.42
22582;BME280;47125;48.542;9.052;2023-04-20T08:58:43;95636.19;;;7.36;75.63
22582;BME280;47125;48.542;9.052;2023-04-20T09:08:47;95641.44;;;7.24;75.54
22582;BME280;47125;48.542;9.052;2023-04-20T09:18:50;95638.16;;;7.40;75.43
22582;BME280;47125;48.542;9.052;2023-04-20T09:28:54;95634.56;;;7.35;75.06
22582;BME280;47125;48.542;9.052;2023-04-20T09:39:00;95623.91;;;7.64;75.26
22582;BME280;47125;48.542;9.052;2023-04-20T09:49:05;95628.22;;;7.77;74.63
22582;BME280;47125;48.542;9.052;2023-04-20T09:59:08;95625.44;;;7.84;73.28
22582;BME280;47125;48.542;9.052;2023-04-20T10:09:19;95637.03;;;8.12;73.44
22582;BME280;47125;48.542;9.052;2023-04-20T10:19:22;95608.25;;;8.09;75.90
22582;BME280;47125;48.542;9.052;2023-04-20T10:29:26;95577.94;;;7.75;78.12
22582;BME280;47125;48.542;9.052;2023-04-20T10:39:28;95579.19;;;7.61;78.90
22582;BME280;47125;48.542;9.052;2023-04-20T10:49:34;95581.41;;;7.88;80.38
22582;BME280;47125;48.542;9.052;2023-04-20T10:59:36;95572.97;;;7.79;80.61
22582;BME280;47125;48.542;9.052;2023-04-20T11:09:42;95551.94;;;7.78;82.73
22582;BME280;47125;48.542;9.052;2023-04-20T11:19:45;95563.16;;;7.91;82.44
22582;BME280;47125;48.542;9.052;2023-04-20T11:29:55;95575.78;;;8.30;82.57
22582;BME280;47125;48.542;9.052;2023-04-20T11:40:00;95579.44;;;8.18;82.80
22582;BME280;47125;48.542;9.052;2023-04-20T11:50:05;95576.34;;;8.32;80.90
22582;BME280;47125;48.542;9.052;2023-04-20T12:00:08;95561.06;;;8.16;82.88
22582;BME280;47125;48.542;9.052;2023-04-20T12:10:12;95540.59;;;7.94;86.57
22582;BME280;47125;48.542;9.052;2023-04-20T12:20:15;95542.44;;;7.70;85.91
22582;BME280;47125;48.542;9.052;2023-04-20T12:30:18;95551.47;;;8.39;85.08
22582;BME280;47125;48.542;9.052;2023-04-20T12:40:21;95522.56;;;8.19;85.45
22582;BME280;47125;48.542;9.052;2023-04-20T12:50:25;95536.50;;;8.61;84.28
22582;BME280;47125;48.542;9.052;2023-04-20T13:00:27;95549.63;;;8.27;83.65
22582;BME280;47125;48.542;9.052;2023-04-20T13:10:31;95553.66;;;8.18;81.69
22582;BME280;47125;48.542;9.052;2023-04-20T13:20:34;95542.34;;;8.23;81.27
22582;BME280;47125;48.542;9.052;2023-04-20T13:30:38;95518.59;;;8.45;81.55
22582;BME280;47125;48.542;9.052;2023-04-20T13:40:40;95517.31;;;8.59;82.16
22582;BME280;47125;48.542;9.052;2023-04-20T13:50:45;95512.00;;;8.47;81.51
22582;BME280;47125;48.542;9.052;2023-04-20T14:00:48;95513.88;;;8.23;82.83
22582;BME280;47125;48.542;9.052;2023-04-20T14:10:52;95529.97;;;8.17;83.14
22582;BME280;47125;48.542;9.052;2023-04-20T14:20:55;95526.50;;;8.05;85.34
22582;BME280;47125;48.542;9.052;2023-04-20T14:30:59;95517.88;;;8.61;82.42
22582;BME280;47125;48.542;9.052;2023-04-20T14:41:02;95536.56;;;8.38;84.49
22582;BME280;47125;48.542;9.052;2023-04-20T14:51:06;95560.22;;;8.51;83.04
22582;BME280;47125;48.542;9.052;2023-04-20T15:01:08;95549.53;;;8.11;84.31
22582;BME280;47125;48.542;9.052;2023-04-20T15:11:12;95543.22;;;8.52;83.46
22582;BME280;47125;48.542;9.052;2023-04-20T15:21:15;95542.56;;;8.33;84.71
22582;BME280;47125;48.542;9.052;2023-04-20T15:31:19;95522.78;;;8.17;85.15
22582;BME280;47125;48.542;9.052;2023-04-20T15:41:21;95503.63;;;7.92;87.87
22582;BME280;47125;48.542;9.052;2023-04-20T15:51:25;95530.53;;;8.42;84.07
22582;BME280;47125;48.542;9.052;2023-04-20T16:01:28;95534.06;;;8.59;83.02
22582;BME280;47125;48.542;9.052;2023-04-20T16:11:32;95552.38;;;8.44;83.31
22582;BME280;47125;48.542;9.052;2023-04-20T16:21:35;95575.72;;;8.54;82.15
22582;BME280;47125;48.542;9.052;2023-04-20T16:31:39;95571.44;;;8.64;82.34
22582;BME280;47125;48.542;9.052;2023-04-20T16:41:41;95572.47;;;12.35;69.84
22582;BME280;47125;48.542;9.052;2023-04-20T16:51:45;95574.53;;;12.23;67.47
22582;BME280;47125;48.542;9.052;2023-04-20T17:01:48;95586.97;;;9.52;75.53
22582;BME280;47125;48.542;9.052;2023-04-20T17:11:52;95600.69;;;9.16;77.86
22582;BME280;47125;48.542;9.052;2023-04-20T17:21:54;95583.88;;;9.15;78.27
22582;BME280;47125;48.542;9.052;2023-04-20T17:31:59;95565.69;;;8.56;80.17
22582;BME280;47125;48.542;9.052;2023-04-20T17:42:02;95572.69;;;8.73;79.83
22582;BME280;47125;48.542;9.052;2023-04-20T17:52:05;95575.19;;;8.40;81.79
22582;BME280;47125;48.542;9.052;2023-04-20T18:02:09;95602.09;;;8.67;80.01
22582;BME280;47125;48.542;9.052;2023-04-20T18:12:13;95591.03;;;8.86;79.77
22582;BME280;47125;48.542;9.052;2023-04-20T18:22:16;95605.66;;;8.72;79.74
22582;BME280;47125;48.542;9.052;2023-04-20T18:32:22;95616.56;;;8.71;79.96
22582;BME280;47125;48.542;9.052;2023-04-20T18:42:24;95624.56;;;8.71;80.21
22582;BME280;47125;48.542;9.052;2023-04-20T18:52:28;95636.69;;;8.78;80.00
22582;BME280;47125;48.542;9.052;2023-04-20T19:02:32;95634.72;;;8.74;80.55
22582;BME280;47125;48.542;9.052;2023-04-20T19:12:36;95639.00;;;8.75;80.63
22582;BME280;47125;48.542;9.052;2023-04-20T19:22:39;95652.56;;;8.73;80.43
22582;BME280;47125;48.542;9.052;2023-04-20T19:32:43;95656.97;;;8.68;80.63
22582;BME280;47125;48.542;9.052;2023-04-20T19:42:45;95669.31;;;8.62;80.82
22582;BME280;47125;48.542;9.052;2023-04-20T19:52:50;95659.16;;;8.71;80.78
22582;BME280;47125;48.542;9.052;2023-04-20T20:02:52;95664.69;;;8.69;81.04
22582;BME280;47125;48.542;9.052;2023-04-20T20:12:56;95655.22;;;8.50;81.69
22582;BME280;47125;48.542;9.052;2023-04-20T20:22:59;95661.00;;;8.70;81.29
22582;BME280;47125;48.542;9.052;2023-04-20T20:33:03;95656.97;;;8.68;81.57
22582;BME280;47125;48.542;9.052;2023-04-20T20:43:06;95659.03;;;8.66;81.16
22582;BME280;47125;48.542;9.052;2023-04-20T20:53:10;95641.09;;;8.61;81.18
22582;BME280;47125;48.542;9.052;2023-04-20T21:03:12;95645.03;;;8.70;80.76
22582;BME280;47125;48.542;9.052;2023-04-20T21:13:16;95639.47;;;8.72;80.71
22582;BME280;47125;48.542;9.052;2023-04-20T21:23:19;95632.63;;;8.76;80.03
22582;BME280;47125;48.542;9.052;2023-04-20T21:33:23;95628.81;;;8.72;80.61
22582;BME280;47125;48.542;9.052;2023-04-20T21:43:26;95630.91;;;8.70;80.33
22582;BME280;47125;48.542;9.052;2023-04-20T21:53:29;95631.13;;;8.68;79.71
22582;BME280;47125;48.542;9.052;2023-04-20T22:03:32;95625.34;;;8.71;80.36
22582;BME280;47125;48.542;9.052;2023-04-20T22:13:38;95631.72;;;8.70;80.20
22582;BME280;47125;48.542;9.052;2023-04-20T22:23:41;95645.03;;;8.70;79.97
22582;BME280;47125;48.542;9.052;2023-04-20T22:33:45;95652.88;;;8.65;80.77
22582;BME280;47125;48.542;9.052;2023-04-20T22:43:47;95664.22;;;8.72;80.81
22582;BME280;47125;48.542;9.052;2023-04-20T22:53:51;95668.88;;;8.77;80.76
22582;BME280;47125;48.542;9.052;2023-04-20T23:03:53;95654.97;;;8.75;79.66
22582;BME280;47125;48.542;9.052;2023-04-20T23:13:57;95654.75;;;8.76;80.00
22582;BME280;47125;48.542;9.052;2023-04-20T23:23:59;95651.28;;;8.64;79.69
22582;BME280;47125;48.542;9.052;2023-04-20T23:34:03;95650.81;;;8.44;79.53
22582;BME280;47125;48.542;9.052;2023-04-20T23:44:06;95632.09;;;8.27;79.09
22582;BME280;47125;48.542;9.052;2023-04-20T23:54:10;95628.47;;;8.22;77.98
